PWSweather.com
Personal Weather Stations
Station Observations
WD4JKH
Forsyth, GA 31029

Forsyth, GA 31029

Lat: 33.033225, Lon: -83.927995

Elevation: 709

Station Type: Davis Vantage VUE

High Low Average
Temperature 58.6°F14.8°C 48.6°F9.2°C 52.2°F11.2°C
Dew Point 58.0°F14.4°C 47.8°F8.8°C 51.3°F10.7°C
Winds 7.1 mph 11.4 kmh Calm Calm 3.0 mph SE4.8 kmh SE
Wind Gusts 15.0 mph24.1 kmh -- 8.0 mph12.9 kmh
Humidity 98% 88% 97%
Pressure 29.95 in1014.2 mb 29.35 in993.9 mb -
Precipitation 1.58 in40.1 mm - -
Hour Temp Dew Point Humidity Winds Wind Gusts Pressure Precip Precip Rate Daily Precip Total
12:03 AM 51.5°F10.8°C 48.0°F8.9°C 88% 2.5 mph ENE4.0 kmh ENE 7.0 mph11.3 kmh 29.95 in1014.2 mb 0.00 in0.0 mm 0.00 in0.0 mm 0.00 in0.0 mm
12:08 AM 51.4°F10.8°C 47.9°F8.8°C 88% 2.0 mph ENE3.2 kmh ENE 6.0 mph9.7 kmh 29.94 in1013.9 mb 0.00 in0.0 mm 0.00 in0.0 mm 0.00 in0.0 mm
12:13 AM 51.4°F10.8°C 48.2°F9.0°C 89% 2.5 mph ENE4.0 kmh ENE 6.0 mph9.7 kmh 29.94 in1013.9 mb 0.00 in0.0 mm 0.00 in0.0 mm 0.00 in0.0 mm
12:19 AM 51.3°F10.7°C 48.1°F8.9°C 89% 3.8 mph ENE6.1 kmh ENE 7.0 mph11.3 kmh 29.94 in1013.9 mb 0.00 in0.0 mm 0.00 in0.0 mm 0.00 in0.0 mm
12:24 AM 51.3°F10.7°C 48.1°F8.9°C 89% 4.9 mph ENE7.9 kmh ENE 9.0 mph14.5 kmh 29.93 in1013.5 mb 0.00 in0.0 mm 0.00 in0.0 mm 0.00 in0.0 mm
12:28 AM 51.2°F10.7°C 48.0°F8.9°C 89% 3.2 mph ENE5.1 kmh ENE 9.0 mph14.5 kmh 29.92 in1013.2 mb 0.00 in0.0 mm 0.00 in0.0 mm 0.00 in0.0 mm
12:34 AM 51.2°F10.7°C 48.3°F9.1°C 90% 3.8 mph NE6.1 kmh NE 13.0 mph20.9 kmh 29.92 in1013.2 mb 0.00 in0.0 mm 0.00 in0.0 mm 0.00 in0.0 mm
12:39 AM 51.3°F10.7°C 48.4°F9.1°C 90% 2.8 mph ENE4.5 kmh ENE 13.0 mph20.9 kmh 29.92 in1013.2 mb 0.00 in0.0 mm 0.00 in0.0 mm 0.00 in0.0 mm
12:43 AM 51.2°F10.7°C 48.3°F9.1°C 90% 2.9 mph ENE4.7 kmh ENE 13.0 mph20.9 kmh 29.92 in1013.2 mb 0.00 in0.0 mm 0.00 in0.0 mm 0.00 in0.0 mm
12:49 AM 51.2°F10.7°C 48.3°F9.1°C 90% 3.0 mph ENE4.8 kmh ENE 13.0 mph20.9 kmh 29.92 in1013.2 mb 0.00 in0.0 mm 0.00 in0.0 mm 0.00 in0.0 mm
12:53 AM 51.3°F10.7°C 48.7°F9.3°C 91% 2.7 mph NE4.3 kmh NE 6.0 mph9.7 kmh 29.93 in1013.5 mb 0.00 in0.0 mm 0.00 in0.0 mm 0.00 in0.0 mm
12:59 AM 51.3°F10.7°C 48.7°F9.3°C 91% 2.4 mph ENE3.9 kmh ENE 6.0 mph9.7 kmh 29.94 in1013.9 mb 0.00 in0.0 mm 0.00 in0.0 mm 0.00 in0.0 mm
01:04 AM 51.2°F10.7°C 48.6°F9.2°C 91% 1.9 mph ENE3.1 kmh ENE 6.0 mph9.7 kmh 29.93 in1013.5 mb 0.00 in0.0 mm 0.00 in0.0 mm 0.00 in0.0 mm
01:08 AM 51.2°F10.7°C 48.7°F9.3°C 91% 1.8 mph ENE2.9 kmh ENE 6.0 mph9.7 kmh 29.93 in1013.5 mb 0.00 in0.0 mm 0.00 in0.0 mm 0.00 in0.0 mm
01:14 AM 51.2°F10.7°C 48.7°F9.3°C 91% 1.6 mph ENE2.6 kmh ENE 4.0 mph6.4 kmh 29.92 in1013.2 mb 0.00 in0.0 mm 0.00 in0.0 mm 0.00 in0.0 mm
01:19 AM 51.2°F10.7°C 48.7°F9.3°C 91% 4.0 mph E6.4 kmh E 9.0 mph14.5 kmh 29.92 in1013.2 mb 0.00 in0.0 mm 0.00 in0.0 mm 0.00 in0.0 mm
01:24 AM 51.2°F10.7°C 48.6°F9.2°C 91% 2.9 mph ENE4.7 kmh ENE 9.0 mph14.5 kmh 29.92 in1013.2 mb 0.00 in0.0 mm 0.00 in0.0 mm 0.00 in0.0 mm
01:29 AM 51.2°F10.7°C 48.6°F9.2°C 91% 2.3 mph E3.7 kmh E 9.0 mph14.5 kmh 29.92 in1013.2 mb 0.00 in0.0 mm 0.00 in0.0 mm 0.00 in0.0 mm
01:34 AM 51.1°F10.6°C 48.5°F9.2°C 91% 2.1 mph ENE3.4 kmh ENE 9.0 mph14.5 kmh 29.92 in1013.2 mb 0.00 in0.0 mm 0.00 in0.0 mm 0.00 in0.0 mm
01:39 AM 51.1°F10.6°C 48.5°F9.2°C 91% 2.7 mph ENE4.3 kmh ENE 6.0 mph9.7 kmh 29.92 in1013.2 mb 0.00 in0.0 mm 0.00 in0.0 mm 0.00 in0.0 mm
01:44 AM 51.0°F10.6°C 48.4°F9.1°C 91% 3.1 mph ENE5.0 kmh ENE 8.0 mph12.9 kmh 29.91 in1012.9 mb 0.00 in0.0 mm 0.00 in0.0 mm 0.00 in0.0 mm
01:49 AM 51.0°F10.6°C 48.5°F9.2°C 91% 3.5 mph NE5.6 kmh NE 9.0 mph14.5 kmh 29.91 in1012.9 mb 0.00 in0.0 mm 0.00 in0.0 mm 0.00 in0.0 mm
01:54 AM 50.9°F10.5°C 48.7°F9.3°C 92% 2.6 mph ENE4.2 kmh ENE 9.0 mph14.5 kmh 29.91 in1012.9 mb 0.00 in0.0 mm 0.00 in0.0 mm 0.00 in0.0 mm
01:59 AM 50.9°F10.5°C 48.6°F9.2°C 92% 2.0 mph NE3.2 kmh NE 9.0 mph14.5 kmh 29.91 in1012.9 mb 0.00 in0.0 mm 0.00 in0.0 mm 0.00 in0.0 mm
02:04 AM 50.8°F10.4°C 48.5°F9.2°C 92% 2.3 mph NE3.7 kmh NE 9.0 mph14.5 kmh 29.91 in1012.9 mb 0.00 in0.0 mm 0.00 in0.0 mm 0.00 in0.0 mm
02:09 AM 50.7°F10.4°C 48.1°F8.9°C 91% 2.2 mph NE3.5 kmh NE 7.0 mph11.3 kmh 29.91 in1012.9 mb 0.00 in0.0 mm 0.00 in0.0 mm 0.00 in0.0 mm
02:14 AM 50.6°F10.3°C 48.0°F8.9°C 91% 2.1 mph NE3.4 kmh NE 5.0 mph8.0 kmh 29.91 in1012.9 mb 0.00 in0.0 mm 0.00 in0.0 mm 0.00 in0.0 mm
02:19 AM 50.4°F10.2°C 48.1°F8.9°C 92% 4.0 mph NE6.4 kmh NE 8.0 mph12.9 kmh 29.90 in1012.5 mb 0.00 in0.0 mm 0.00 in0.0 mm 0.00 in0.0 mm
02:24 AM 50.4°F10.2°C 48.1°F8.9°C 92% 2.1 mph ENE3.4 kmh ENE 9.0 mph14.5 kmh 29.90 in1012.5 mb 0.00 in0.0 mm 0.00 in0.0 mm 0.00 in0.0 mm
02:29 AM 50.5°F10.3°C 48.2°F9.0°C 92% 3.2 mph E5.1 kmh E 9.0 mph14.5 kmh 29.91 in1012.9 mb 0.00 in0.0 mm 0.00 in0.0 mm 0.00 in0.0 mm
02:34 AM 50.5°F10.3°C 48.2°F9.0°C 92% 2.3 mph ENE3.7 kmh ENE 9.0 mph14.5 kmh 29.91 in1012.9 mb 0.00 in0.0 mm 0.00 in0.0 mm 0.00 in0.0 mm
02:39 AM 50.5°F10.3°C 48.2°F9.0°C 92% 2.6 mph ENE4.2 kmh ENE 9.0 mph14.5 kmh 29.90 in1012.5 mb 0.00 in0.0 mm 0.00 in0.0 mm 0.00 in0.0 mm
02:44 AM 50.5°F10.3°C 48.2°F9.0°C 92% 3.5 mph ENE5.6 kmh ENE 9.0 mph14.5 kmh 29.89 in1012.2 mb 0.00 in0.0 mm 0.00 in0.0 mm 0.00 in0.0 mm
02:48 AM 50.5°F10.3°C 48.2°F9.0°C 92% 3.1 mph E5.0 kmh E 9.0 mph14.5 kmh 29.89 in1012.2 mb 0.00 in0.0 mm 0.00 in0.0 mm 0.00 in0.0 mm
02:53 AM 50.4°F10.2°C 48.1°F8.9°C 92% 3.2 mph E5.1 kmh E 9.0 mph14.5 kmh 29.89 in1012.2 mb 0.00 in0.0 mm 0.00 in0.0 mm 0.00 in0.0 mm
02:58 AM 50.4°F10.2°C 48.1°F8.9°C 92% 2.6 mph ENE4.2 kmh ENE 9.0 mph14.5 kmh 29.89 in1012.2 mb 0.00 in0.0 mm 0.00 in0.0 mm 0.00 in0.0 mm
03:03 AM 50.4°F10.2°C 48.1°F8.9°C 92% 3.2 mph E5.1 kmh E 9.0 mph14.5 kmh 29.89 in1012.2 mb 0.00 in0.0 mm 0.00 in0.0 mm 0.00 in0.0 mm
03:08 AM 50.4°F10.2°C 48.1°F8.9°C 92% 3.1 mph ENE5.0 kmh ENE 9.0 mph14.5 kmh 29.88 in1011.9 mb 0.00 in0.0 mm 0.00 in0.0 mm 0.00 in0.0 mm
03:13 AM 50.3°F10.2°C 48.3°F9.1°C 93% 3.4 mph E5.5 kmh E 9.0 mph14.5 kmh 29.89 in1012.2 mb 0.00 in0.0 mm 0.00 in0.0 mm 0.00 in0.0 mm
03:18 AM 50.1°F10.1°C 48.4°F9.1°C 94% 2.4 mph E3.9 kmh E 7.0 mph11.3 kmh 29.89 in1012.2 mb 0.01 in0.3 mm 0.12 in3.0 mm 0.01 in0.3 mm
03:23 AM 49.9°F9.9°C 48.2°F9.0°C 94% 3.6 mph E5.8 kmh E 9.0 mph14.5 kmh 29.88 in1011.9 mb 0.02 in0.5 mm 0.12 in3.0 mm 0.02 in0.5 mm
03:28 AM 49.8°F9.9°C 48.1°F8.9°C 94% 2.9 mph NE4.7 kmh NE 9.0 mph14.5 kmh 29.88 in1011.9 mb 0.05 in1.3 mm 0.36 in9.1 mm 0.05 in1.3 mm
03:33 AM 49.6°F9.8°C 48.2°F9.0°C 95% 2.3 mph ENE3.7 kmh ENE 11.0 mph17.7 kmh 29.87 in1011.5 mb 0.07 in1.8 mm 0.24 in6.1 mm 0.07 in1.8 mm
03:38 AM 49.5°F9.7°C 48.1°F8.9°C 95% 2.4 mph ENE3.9 kmh ENE 11.0 mph17.7 kmh 29.86 in1011.2 mb 0.09 in2.3 mm 0.24 in6.1 mm 0.09 in2.3 mm
03:43 AM 49.4°F9.7°C 48.3°F9.1°C 96% 5.3 mph ENE8.5 kmh ENE 11.0 mph17.7 kmh 29.86 in1011.2 mb 0.11 in2.8 mm 0.24 in6.1 mm 0.11 in2.8 mm
03:48 AM 49.4°F9.7°C 48.3°F9.1°C 96% 6.4 mph ENE10.3 kmh ENE 11.0 mph17.7 kmh 29.85 in1010.8 mb 0.13 in3.3 mm 0.24 in6.1 mm 0.13 in3.3 mm
03:53 AM 49.4°F9.7°C 48.3°F9.1°C 96% 5.4 mph ENE8.7 kmh ENE 10.0 mph16.1 kmh 29.85 in1010.8 mb 0.14 in3.6 mm 0.12 in3.0 mm 0.14 in3.6 mm
03:58 AM 49.3°F9.6°C 48.2°F9.0°C 96% 3.2 mph ENE5.1 kmh ENE 10.0 mph16.1 kmh 29.84 in1010.5 mb 0.15 in3.8 mm 0.12 in3.0 mm 0.15 in3.8 mm
04:03 AM 49.4°F9.7°C 48.3°F9.1°C 96% 3.5 mph NE5.6 kmh NE 10.0 mph16.1 kmh 29.84 in1010.5 mb 0.16 in4.1 mm 0.01 in0.3 mm 0.16 in4.1 mm
04:08 AM 49.3°F9.6°C 48.2°F9.0°C 96% 3.5 mph ENE5.6 kmh ENE 10.0 mph16.1 kmh 29.84 in1010.5 mb 0.17 in4.3 mm 0.12 in3.0 mm 0.17 in4.3 mm
04:13 AM 49.2°F9.6°C 48.1°F8.9°C 96% 3.3 mph ENE5.3 kmh ENE 11.0 mph17.7 kmh 29.83 in1010.2 mb 0.18 in4.6 mm 0.12 in3.0 mm 0.19 in4.8 mm
04:18 AM 49.2°F9.6°C 48.1°F8.9°C 96% 3.6 mph ENE5.8 kmh ENE 11.0 mph17.7 kmh 29.83 in1010.2 mb 0.19 in4.8 mm 0.12 in3.0 mm 0.20 in5.1 mm
04:23 AM 49.2°F9.6°C 48.4°F9.1°C 97% 3.2 mph NE5.1 kmh NE 11.0 mph17.7 kmh 29.83 in1010.2 mb 0.20 in5.1 mm 0.12 in3.0 mm 0.22 in5.6 mm
04:28 AM 49.2°F9.6°C 48.4°F9.1°C 97% 3.2 mph ENE5.1 kmh ENE 13.0 mph20.9 kmh 29.83 in1010.2 mb 0.20 in5.1 mm 0.00 in0.0 mm 0.25 in6.4 mm
04:33 AM 49.2°F9.6°C 48.4°F9.1°C 97% 3.5 mph ENE5.6 kmh ENE 13.0 mph20.9 kmh 29.83 in1010.2 mb 0.20 in5.1 mm 0.00 in0.0 mm 0.27 in6.9 mm
04:38 AM 49.1°F9.5°C 48.3°F9.1°C 97% 3.5 mph NE5.6 kmh NE 13.0 mph20.9 kmh 29.83 in1010.2 mb 0.26 in6.6 mm 0.72 in18.3 mm 0.35 in8.9 mm
04:43 AM 49.1°F9.5°C 48.3°F9.1°C 97% 4.5 mph ENE7.2 kmh ENE 11.0 mph17.7 kmh 29.82 in1009.8 mb 0.25 in6.4 mm 0.00 in0.0 mm 0.36 in9.1 mm
04:48 AM 49.1°F9.5°C 48.3°F9.1°C 97% 4.3 mph ENE6.9 kmh ENE 12.0 mph19.3 kmh 29.82 in1009.8 mb 0.24 in6.1 mm 0.00 in0.0 mm 0.37 in9.4 mm
04:53 AM 49.0°F9.4°C 48.2°F9.0°C 97% 5.7 mph ENE9.2 kmh ENE 12.0 mph19.3 kmh 29.82 in1009.8 mb 0.24 in6.1 mm 0.00 in0.0 mm 0.38 in9.7 mm
04:58 AM 49.0°F9.4°C 48.2°F9.0°C 97% 2.5 mph ENE4.0 kmh ENE 12.0 mph19.3 kmh 29.82 in1009.8 mb 0.24 in6.1 mm 0.00 in0.0 mm 0.39 in9.9 mm
05:03 AM 48.9°F9.4°C 48.1°F8.9°C 97% 5.0 mph ENE8.0 kmh ENE 12.0 mph19.3 kmh 29.82 in1009.8 mb 0.23 in5.8 mm 0.00 in0.0 mm 0.39 in9.9 mm
05:08 AM 48.9°F9.4°C 48.1°F8.9°C 97% 4.0 mph E6.4 kmh E 12.0 mph19.3 kmh 29.82 in1009.8 mb 0.23 in5.8 mm 0.00 in0.0 mm 0.40 in10.2 mm
05:13 AM 48.9°F9.4°C 48.1°F8.9°C 97% 5.8 mph ENE9.3 kmh ENE 12.0 mph19.3 kmh 29.82 in1009.8 mb 0.21 in5.3 mm 0.00 in0.0 mm 0.40 in10.2 mm
05:18 AM 49.0°F9.4°C 48.2°F9.0°C 97% 2.7 mph ENE4.3 kmh ENE 11.0 mph17.7 kmh 29.81 in1009.5 mb 0.20 in5.1 mm 0.00 in0.0 mm 0.40 in10.2 mm
05:23 AM 49.1°F9.5°C 48.3°F9.1°C 97% 4.9 mph ENE7.9 kmh ENE 11.0 mph17.7 kmh 29.81 in1009.5 mb 0.18 in4.6 mm 0.00 in0.0 mm 0.40 in10.2 mm
05:28 AM 49.1°F9.5°C 48.3°F9.1°C 97% 5.4 mph ENE8.7 kmh ENE 12.0 mph19.3 kmh 29.81 in1009.5 mb 0.16 in4.1 mm 0.00 in0.0 mm 0.41 in10.4 mm
05:33 AM 49.1°F9.5°C 48.3°F9.1°C 97% 5.3 mph E8.5 kmh E 12.0 mph19.3 kmh 29.81 in1009.5 mb 0.15 in3.8 mm 0.00 in0.0 mm 0.42 in10.7 mm
05:38 AM 49.0°F9.4°C 48.2°F9.0°C 97% 5.9 mph ENE9.5 kmh ENE 12.0 mph19.3 kmh 29.80 in1009.1 mb 0.10 in2.5 mm 0.00 in0.0 mm 0.45 in11.4 mm
05:43 AM 49.0°F9.4°C 48.2°F9.0°C 97% 3.9 mph ENE6.3 kmh ENE 12.0 mph19.3 kmh 29.80 in1009.1 mb 0.12 in3.0 mm 0.24 in6.1 mm 0.48 in12.2 mm
05:48 AM 49.0°F9.4°C 48.2°F9.0°C 97% 6.0 mph E9.7 kmh E 12.0 mph19.3 kmh 29.80 in1009.1 mb 0.11 in2.8 mm 0.00 in0.0 mm 0.49 in12.4 mm
05:53 AM 49.0°F9.4°C 48.2°F9.0°C 97% 2.6 mph E4.2 kmh E 12.0 mph19.3 kmh 29.80 in1009.1 mb 0.11 in2.8 mm 0.00 in0.0 mm 0.49 in12.4 mm
05:58 AM 49.0°F9.4°C 48.2°F9.0°C 97% 3.2 mph ENE5.1 kmh ENE 12.0 mph19.3 kmh 29.80 in1009.1 mb 0.11 in2.8 mm 0.00 in0.0 mm 0.50 in12.7 mm
06:03 AM 49.0°F9.4°C 48.2°F9.0°C 97% 2.0 mph ENE3.2 kmh ENE 12.0 mph19.3 kmh 29.79 in1008.8 mb 0.12 in3.0 mm 0.01 in0.3 mm 0.51 in13.0 mm
06:08 AM 49.1°F9.5°C 48.3°F9.1°C 97% 3.1 mph ENE5.0 kmh ENE 9.0 mph14.5 kmh 29.79 in1008.8 mb 0.11 in2.8 mm 0.00 in0.0 mm 0.51 in13.0 mm
06:13 AM 49.1°F9.5°C 48.3°F9.1°C 97% 7.1 mph NE11.4 kmh NE 12.0 mph19.3 kmh 29.78 in1008.5 mb 0.12 in3.0 mm 0.12 in3.0 mm 0.52 in13.2 mm
06:18 AM 49.1°F9.5°C 48.3°F9.1°C 97% 3.9 mph NE6.3 kmh NE 12.0 mph19.3 kmh 29.78 in1008.5 mb 0.14 in3.6 mm 0.24 in6.1 mm 0.54 in13.7 mm
06:23 AM 49.1°F9.5°C 48.3°F9.1°C 97% 3.5 mph NE5.6 kmh NE 12.0 mph19.3 kmh 29.78 in1008.5 mb 0.15 in3.8 mm 0.12 in3.0 mm 0.55 in14.0 mm
06:28 AM 49.1°F9.5°C 48.3°F9.1°C 97% 3.8 mph NE6.1 kmh NE 12.0 mph19.3 kmh 29.77 in1008.1 mb 0.15 in3.8 mm 0.00 in0.0 mm 0.56 in14.2 mm
06:33 AM 48.9°F9.4°C 48.1°F8.9°C 97% 2.5 mph NE4.0 kmh NE 9.0 mph14.5 kmh 29.77 in1008.1 mb 0.15 in3.8 mm 0.00 in0.0 mm 0.57 in14.5 mm
06:38 AM 48.9°F9.4°C 48.1°F8.9°C 97% 2.5 mph NE4.0 kmh NE 9.0 mph14.5 kmh 29.76 in1007.8 mb 0.13 in3.3 mm 0.00 in0.0 mm 0.58 in14.7 mm
06:43 AM 48.9°F9.4°C 48.1°F8.9°C 97% 2.1 mph NE3.4 kmh NE 9.0 mph14.5 kmh 29.76 in1007.8 mb 0.11 in2.8 mm 0.00 in0.0 mm 0.59 in15.0 mm
06:48 AM 48.9°F9.4°C 48.1°F8.9°C 97% 4.7 mph NE7.6 kmh NE 9.0 mph14.5 kmh 29.76 in1007.8 mb 0.12 in3.0 mm 0.12 in3.0 mm 0.61 in15.5 mm
06:53 AM 48.9°F9.4°C 48.1°F8.9°C 97% 5.8 mph NE9.3 kmh NE 11.0 mph17.7 kmh 29.75 in1007.5 mb 0.13 in3.3 mm 0.12 in3.0 mm 0.62 in15.7 mm
06:58 AM 48.9°F9.4°C 48.1°F8.9°C 97% 4.7 mph NE7.6 kmh NE 11.0 mph17.7 kmh 29.75 in1007.5 mb 0.14 in3.6 mm 0.12 in3.0 mm 0.64 in16.3 mm
07:03 AM 48.9°F9.4°C 48.1°F8.9°C 97% 5.1 mph NE8.2 kmh NE 12.0 mph19.3 kmh 29.75 in1007.5 mb 0.15 in3.8 mm 0.01 in0.3 mm 0.66 in16.8 mm
07:08 AM 48.9°F9.4°C 48.1°F8.9°C 97% 3.0 mph NE4.8 kmh NE 12.0 mph19.3 kmh 29.75 in1007.5 mb 0.18 in4.6 mm 0.36 in9.1 mm 0.69 in17.5 mm
07:13 AM 48.9°F9.4°C 48.1°F8.9°C 97% 1.8 mph NE2.9 kmh NE 12.0 mph19.3 kmh 29.75 in1007.5 mb 0.19 in4.8 mm 0.12 in3.0 mm 0.71 in18.0 mm
07:18 AM 48.9°F9.4°C 48.1°F8.9°C 97% 3.0 mph NE4.8 kmh NE 12.0 mph19.3 kmh 29.75 in1007.5 mb 0.19 in4.8 mm 0.00 in0.0 mm 0.73 in18.5 mm
07:23 AM 48.8°F9.3°C 48.0°F8.9°C 97% 5.6 mph NE9.0 kmh NE 10.0 mph16.1 kmh 29.75 in1007.5 mb 0.19 in4.8 mm 0.00 in0.0 mm 0.74 in18.8 mm
07:28 AM 48.8°F9.3°C 48.0°F8.9°C 97% 3.6 mph NE5.8 kmh NE 10.0 mph16.1 kmh 29.75 in1007.5 mb 0.19 in4.8 mm 0.00 in0.0 mm 0.75 in19.1 mm
07:33 AM 48.8°F9.3°C 48.0°F8.9°C 97% 3.2 mph NE5.1 kmh NE 10.0 mph16.1 kmh 29.74 in1007.1 mb 0.19 in4.8 mm 0.00 in0.0 mm 0.76 in19.3 mm
07:38 AM 48.7°F9.3°C 47.9°F8.8°C 97% 4.9 mph NE7.9 kmh NE 10.0 mph16.1 kmh 29.74 in1007.1 mb 0.19 in4.8 mm 0.00 in0.0 mm 0.77 in19.6 mm
07:43 AM 48.7°F9.3°C 47.9°F8.8°C 97% 4.0 mph NE6.4 kmh NE 10.0 mph16.1 kmh 29.74 in1007.1 mb 0.20 in5.1 mm 0.12 in3.0 mm 0.79 in20.1 mm
07:47 AM 48.7°F9.3°C 47.9°F8.8°C 97% 2.5 mph NE4.0 kmh NE 10.0 mph16.1 kmh 29.74 in1007.1 mb 0.22 in5.6 mm 0.30 in7.6 mm 0.82 in20.8 mm
07:52 AM 48.6°F9.2°C 47.8°F8.8°C 97% 6.2 mph NE10.0 kmh NE 12.0 mph19.3 kmh 29.74 in1007.1 mb 0.22 in5.6 mm 0.00 in0.0 mm 0.84 in21.3 mm
07:57 AM 48.7°F9.3°C 47.9°F8.8°C 97% 5.3 mph NE8.5 kmh NE 12.0 mph19.3 kmh 29.73 in1006.8 mb 0.21 in5.3 mm 0.00 in0.0 mm 0.85 in21.6 mm
08:02 AM 48.7°F9.3°C 47.9°F8.8°C 97% 4.9 mph NE7.9 kmh NE 12.0 mph19.3 kmh 29.73 in1006.8 mb 0.21 in5.3 mm 0.00 in0.0 mm 0.86 in21.8 mm
08:07 AM 48.7°F9.3°C 47.9°F8.8°C 97% 4.6 mph NE7.4 kmh NE 12.0 mph19.3 kmh 29.73 in1006.8 mb 0.19 in4.8 mm 0.00 in0.0 mm 0.87 in22.1 mm
08:12 AM 48.7°F9.3°C 48.1°F8.9°C 98% 4.3 mph NE6.9 kmh NE 11.0 mph17.7 kmh 29.73 in1006.8 mb 0.18 in4.6 mm 0.00 in0.0 mm 0.88 in22.4 mm
08:17 AM 48.8°F9.3°C 48.2°F9.0°C 98% 3.0 mph NE4.8 kmh NE 11.0 mph17.7 kmh 29.73 in1006.8 mb 0.18 in4.6 mm 0.00 in0.0 mm 0.91 in23.1 mm
08:22 AM 48.8°F9.3°C 48.2°F9.0°C 98% 2.0 mph NNE3.2 kmh NNE 9.0 mph14.5 kmh 29.73 in1006.8 mb 0.20 in5.1 mm 0.24 in6.1 mm 0.94 in23.9 mm
08:27 AM 48.8°F9.3°C 48.2°F9.0°C 98% 1.3 mph N2.1 kmh N 9.0 mph14.5 kmh 29.73 in1006.8 mb 0.20 in5.1 mm 0.00 in0.0 mm 0.95 in24.1 mm
08:32 AM 48.8°F9.3°C 48.2°F9.0°C 98% 3.0 mph NE4.8 kmh NE 9.0 mph14.5 kmh 29.72 in1006.4 mb 0.19 in4.8 mm 0.00 in0.0 mm 0.95 in24.1 mm
08:37 AM 48.7°F9.3°C 48.1°F8.9°C 98% 3.2 mph NE5.1 kmh NE 7.0 mph11.3 kmh 29.72 in1006.4 mb 0.19 in4.8 mm 0.00 in0.0 mm 0.96 in24.4 mm
08:42 AM 48.7°F9.3°C 48.1°F8.9°C 98% 5.4 mph NE8.7 kmh NE 9.0 mph14.5 kmh 29.72 in1006.4 mb 0.20 in5.1 mm 0.12 in3.0 mm 0.98 in24.9 mm
08:47 AM 48.8°F9.3°C 48.2°F9.0°C 98% 1.3 mph NE2.1 kmh NE 9.0 mph14.5 kmh 29.72 in1006.4 mb 0.19 in4.8 mm 0.00 in0.0 mm 1.01 in25.7 mm
08:52 AM 48.8°F9.3°C 48.2°F9.0°C 98% 2.8 mph NE4.5 kmh NE 9.0 mph14.5 kmh 29.72 in1006.4 mb 0.18 in4.6 mm 0.00 in0.0 mm 1.02 in25.9 mm
08:57 AM 48.8°F9.3°C 48.2°F9.0°C 98% 2.4 mph NE3.9 kmh NE 9.0 mph14.5 kmh 29.72 in1006.4 mb 0.18 in4.6 mm 0.00 in0.0 mm 1.03 in26.2 mm
09:02 AM 48.8°F9.3°C 48.2°F9.0°C 98% 4.3 mph NE6.9 kmh NE 8.0 mph12.9 kmh 29.72 in1006.4 mb 0.18 in4.6 mm 0.00 in0.0 mm 1.04 in26.4 mm
09:07 AM 48.9°F9.4°C 48.3°F9.1°C 98% 2.2 mph NE3.5 kmh NE 8.0 mph12.9 kmh 29.71 in1006.1 mb 0.17 in4.3 mm 0.00 in0.0 mm 1.04 in26.4 mm
09:12 AM 48.9°F9.4°C 48.3°F9.1°C 98% 3.3 mph NE5.3 kmh NE 8.0 mph12.9 kmh 29.71 in1006.1 mb 0.17 in4.3 mm 0.00 in0.0 mm 1.05 in26.7 mm
09:17 AM 48.9°F9.4°C 48.3°F9.1°C 98% 3.7 mph NE6.0 kmh NE 8.0 mph12.9 kmh 29.71 in1006.1 mb 0.14 in3.6 mm 0.00 in0.0 mm 1.05 in26.7 mm
09:22 AM 48.9°F9.4°C 48.3°F9.1°C 98% 3.9 mph NE6.3 kmh NE 8.0 mph12.9 kmh 29.71 in1006.1 mb 0.12 in3.0 mm 0.00 in0.0 mm 1.06 in26.9 mm
09:27 AM 49.0°F9.4°C 48.4°F9.1°C 98% 3.4 mph NE5.5 kmh NE 8.0 mph12.9 kmh 29.70 in1005.8 mb 0.12 in3.0 mm 0.00 in0.0 mm 1.07 in27.2 mm
09:32 AM 49.0°F9.4°C 48.4°F9.1°C 98% 3.6 mph NE5.8 kmh NE 8.0 mph12.9 kmh 29.70 in1005.8 mb 0.13 in3.3 mm 0.12 in3.0 mm 1.08 in27.4 mm
09:37 AM 49.1°F9.5°C 48.5°F9.2°C 98% 3.1 mph NE5.0 kmh NE 8.0 mph12.9 kmh 29.69 in1005.4 mb 0.13 in3.3 mm 0.00 in0.0 mm 1.09 in27.7 mm
09:42 AM 49.2°F9.6°C 48.6°F9.2°C 98% 3.2 mph NE5.1 kmh NE 8.0 mph12.9 kmh 29.69 in1005.4 mb 0.11 in2.8 mm 0.00 in0.0 mm 1.09 in27.7 mm
09:47 AM 49.2°F9.6°C 48.6°F9.2°C 98% 3.5 mph NE5.6 kmh NE 8.0 mph12.9 kmh 29.69 in1005.4 mb 0.09 in2.3 mm 0.00 in0.0 mm 1.10 in27.9 mm
09:52 AM 49.3°F9.6°C 48.8°F9.3°C 98% 3.5 mph NE5.6 kmh NE 9.0 mph14.5 kmh 29.69 in1005.4 mb 0.08 in2.0 mm 0.00 in0.0 mm 1.10 in27.9 mm
09:57 AM 49.3°F9.6°C 48.8°F9.3°C 98% 6.6 mph NE10.6 kmh NE 10.0 mph16.1 kmh 29.68 in1005.1 mb 0.08 in2.0 mm 0.00 in0.0 mm 1.11 in28.2 mm
10:02 AM 49.4°F9.7°C 48.9°F9.4°C 98% 2.9 mph NE4.7 kmh NE 10.0 mph16.1 kmh 29.68 in1005.1 mb 0.08 in2.0 mm 0.00 in0.0 mm 1.12 in28.4 mm
10:07 AM 49.5°F9.7°C 48.9°F9.4°C 98% 2.4 mph NE3.9 kmh NE 10.0 mph16.1 kmh 29.68 in1005.1 mb 0.09 in2.3 mm 0.12 in3.0 mm 1.13 in28.7 mm
10:12 AM 49.6°F9.8°C 49.0°F9.4°C 98% 4.0 mph NE6.4 kmh NE 10.0 mph16.1 kmh 29.68 in1005.1 mb 0.09 in2.3 mm 0.00 in0.0 mm 1.14 in29.0 mm
10:17 AM 49.6°F9.8°C 49.1°F9.5°C 98% 3.0 mph NE4.8 kmh NE 9.0 mph14.5 kmh 29.68 in1005.1 mb 0.10 in2.5 mm 0.12 in3.0 mm 1.15 in29.2 mm
10:22 AM 49.6°F9.8°C 49.0°F9.4°C 98% 2.4 mph NE3.9 kmh NE 9.0 mph14.5 kmh 29.68 in1005.1 mb 0.11 in2.8 mm 0.12 in3.0 mm 1.17 in29.7 mm
10:27 AM 49.7°F9.8°C 49.1°F9.5°C 98% 2.4 mph NE3.9 kmh NE 9.0 mph14.5 kmh 29.67 in1004.7 mb 0.14 in3.6 mm 0.36 in9.1 mm 1.21 in30.7 mm
10:32 AM 49.7°F9.8°C 49.2°F9.6°C 98% 2.3 mph NE3.7 kmh NE 9.0 mph14.5 kmh 29.67 in1004.7 mb 0.16 in4.1 mm 0.24 in6.1 mm 1.24 in31.5 mm
10:37 AM 49.7°F9.8°C 49.1°F9.5°C 98% 3.1 mph NE5.0 kmh NE 8.0 mph12.9 kmh 29.67 in1004.7 mb 0.19 in4.8 mm 0.36 in9.1 mm 1.28 in32.5 mm
10:42 AM 49.8°F9.9°C 49.2°F9.6°C 98% 1.8 mph NE2.9 kmh NE 8.0 mph12.9 kmh 29.66 in1004.4 mb 0.22 in5.6 mm 0.36 in9.1 mm 1.31 in33.3 mm
10:47 AM 49.8°F9.9°C 49.2°F9.6°C 98% 2.1 mph NE3.4 kmh NE 8.0 mph12.9 kmh 29.65 in1004.1 mb 0.25 in6.4 mm 0.36 in9.1 mm 1.35 in34.3 mm
10:52 AM 49.8°F9.9°C 49.3°F9.6°C 98% 4.0 mph NE6.4 kmh NE 8.0 mph12.9 kmh 29.65 in1004.1 mb 0.28 in7.1 mm 0.36 in9.1 mm 1.38 in35.1 mm
10:57 AM 49.8°F9.9°C 49.3°F9.6°C 98% 3.4 mph NE5.5 kmh NE 8.0 mph12.9 kmh 29.64 in1003.7 mb 0.31 in7.9 mm 0.36 in9.1 mm 1.42 in36.1 mm
11:02 AM 49.9°F9.9°C 49.4°F9.7°C 98% 2.9 mph NE4.7 kmh NE 8.0 mph12.9 kmh 29.64 in1003.7 mb 0.33 in8.4 mm 0.02 in0.5 mm 1.45 in36.8 mm
11:07 AM 50.1°F10.1°C 49.5°F9.7°C 98% 2.2 mph NE3.5 kmh NE 8.0 mph12.9 kmh 29.63 in1003.4 mb 0.35 in8.9 mm 0.24 in6.1 mm 1.48 in37.6 mm
11:12 AM 50.3°F10.2°C 49.7°F9.8°C 98% 2.7 mph NE4.3 kmh NE 6.0 mph9.7 kmh 29.63 in1003.4 mb 0.36 in9.1 mm 0.12 in3.0 mm 1.50 in38.1 mm
11:17 AM 50.4°F10.2°C 49.8°F9.9°C 98% 2.9 mph NE4.7 kmh NE 7.0 mph11.3 kmh 29.62 in1003.0 mb 0.36 in9.1 mm 0.00 in0.0 mm 1.51 in38.4 mm
11:22 AM 50.6°F10.3°C 50.0°F10.0°C 98% 1.8 mph NE2.9 kmh NE 7.0 mph11.3 kmh 29.61 in1002.7 mb 0.34 in8.6 mm 0.00 in0.0 mm 1.51 in38.4 mm
11:27 AM 50.6°F10.3°C 50.0°F10.0°C 98% 1.5 mph NE2.4 kmh NE 7.0 mph11.3 kmh 29.61 in1002.7 mb 0.31 in7.9 mm 0.00 in0.0 mm 1.52 in38.6 mm
11:32 AM 50.7°F10.4°C 50.1°F10.1°C 98% 3.9 mph NE6.3 kmh NE 7.0 mph11.3 kmh 29.60 in1002.4 mb 0.28 in7.1 mm 0.00 in0.0 mm 1.52 in38.6 mm
11:37 AM 51.0°F10.6°C 50.4°F10.2°C 98% 4.6 mph NE7.4 kmh NE 7.0 mph11.3 kmh 29.59 in1002.0 mb 0.24 in6.1 mm 0.00 in0.0 mm 1.52 in38.6 mm
11:42 AM 51.2°F10.7°C 50.6°F10.3°C 98% 4.7 mph ENE7.6 kmh ENE 8.0 mph12.9 kmh 29.58 in1001.7 mb 0.21 in5.3 mm 0.00 in0.0 mm 1.52 in38.6 mm
11:47 AM 51.3°F10.7°C 50.7°F10.4°C 98% 3.5 mph NE5.6 kmh NE 8.0 mph12.9 kmh 29.57 in1001.4 mb 0.17 in4.3 mm 0.00 in0.0 mm 1.52 in38.6 mm
11:52 AM 51.4°F10.8°C 50.9°F10.5°C 98% 2.6 mph NE4.2 kmh NE 9.0 mph14.5 kmh 29.57 in1001.4 mb 0.14 in3.6 mm 0.00 in0.0 mm 1.52 in38.6 mm
11:57 AM 51.5°F10.8°C 51.0°F10.6°C 98% 3.8 mph ENE6.1 kmh ENE 9.0 mph14.5 kmh 29.56 in1001.0 mb 0.11 in2.8 mm 0.00 in0.0 mm 1.53 in38.9 mm
12:02 PM 51.7°F10.9°C 51.1°F10.6°C 98% 2.8 mph ENE4.5 kmh ENE 9.0 mph14.5 kmh 29.55 in1000.7 mb 0.08 in2.0 mm 0.00 in0.0 mm 1.53 in38.9 mm
12:07 PM 51.7°F10.9°C 51.1°F10.6°C 98% 2.9 mph ENE4.7 kmh ENE 9.0 mph14.5 kmh 29.54 in1000.3 mb 0.05 in1.3 mm 0.00 in0.0 mm 1.53 in38.9 mm
12:12 PM 51.9°F11.1°C 51.3°F10.7°C 98% 5.5 mph NE8.9 kmh NE 9.0 mph14.5 kmh 29.53 in1000.0 mb 0.03 in0.8 mm 0.00 in0.0 mm 1.53 in38.9 mm
12:17 PM 52.1°F11.2°C 51.5°F10.8°C 98% 2.8 mph ENE4.5 kmh ENE 10.0 mph16.1 kmh 29.52 in999.7 mb 0.02 in0.5 mm 0.00 in0.0 mm 1.53 in38.9 mm
12:22 PM 52.3°F11.3°C 51.7°F10.9°C 98% 4.4 mph ENE7.1 kmh ENE 10.0 mph16.1 kmh 29.50 in999.0 mb 0.02 in0.5 mm 0.00 in0.0 mm 1.53 in38.9 mm
12:27 PM 52.6°F11.4°C 52.0°F11.1°C 98% 2.3 mph E3.7 kmh E 10.0 mph16.1 kmh 29.51 in999.3 mb 0.02 in0.5 mm 0.00 in0.0 mm 1.54 in39.1 mm
12:32 PM 52.9°F11.6°C 52.4°F11.3°C 98% 4.3 mph E6.9 kmh E 10.0 mph16.1 kmh 29.50 in999.0 mb 0.02 in0.5 mm 0.00 in0.0 mm 1.54 in39.1 mm
12:37 PM 53.2°F11.8°C 52.6°F11.4°C 98% 3.8 mph E6.1 kmh E 10.0 mph16.1 kmh 29.49 in998.6 mb 0.02 in0.5 mm 0.00 in0.0 mm 1.54 in39.1 mm
12:42 PM 53.5°F11.9°C 52.9°F11.6°C 98% 3.1 mph E5.0 kmh E 10.0 mph16.1 kmh 29.49 in998.6 mb 0.02 in0.5 mm 0.00 in0.0 mm 1.54 in39.1 mm
12:46 PM 53.6°F12.0°C 53.0°F11.7°C 98% 2.8 mph ENE4.5 kmh ENE 10.0 mph16.1 kmh 29.48 in998.3 mb 0.02 in0.5 mm 0.00 in0.0 mm 1.54 in39.1 mm
12:51 PM 53.7°F12.1°C 53.1°F11.7°C 98% 1.7 mph E2.7 kmh E 10.0 mph16.1 kmh 29.48 in998.3 mb 0.02 in0.5 mm 0.00 in0.0 mm 1.54 in39.1 mm
12:56 PM 53.9°F12.2°C 53.3°F11.8°C 98% 1.3 mph E2.1 kmh E 8.0 mph12.9 kmh 29.49 in998.6 mb 0.01 in0.3 mm 0.00 in0.0 mm 1.54 in39.1 mm
01:01 PM 54.1°F12.3°C 53.5°F11.9°C 98% 1.6 mph E2.6 kmh E 6.0 mph9.7 kmh 29.48 in998.3 mb 0.01 in0.3 mm 0.00 in0.0 mm 1.54 in39.1 mm
01:06 PM 54.2°F12.3°C 53.6°F12.0°C 98% Calm Calm 5.0 mph8.0 kmh 29.48 in998.3 mb 0.01 in0.3 mm 0.00 in0.0 mm 1.54 in39.1 mm
01:11 PM 54.4°F12.4°C 53.8°F12.1°C 98% 1.5 mph S2.4 kmh S 3.0 mph4.8 kmh 29.49 in998.6 mb 0.01 in0.3 mm 0.00 in0.0 mm 1.54 in39.1 mm
01:16 PM 54.8°F12.7°C 54.2°F12.3°C 98% 1.0 mph SW1.6 kmh SW 3.0 mph4.8 kmh 29.49 in998.6 mb 0.01 in0.3 mm 0.00 in0.0 mm 1.54 in39.1 mm
01:21 PM 55.3°F12.9°C 54.7°F12.6°C 98% Calm Calm 3.0 mph4.8 kmh 29.49 in998.6 mb 0.01 in0.3 mm 0.00 in0.0 mm 1.54 in39.1 mm
01:26 PM 55.6°F13.1°C 55.0°F12.8°C 98% Calm Calm 3.0 mph4.8 kmh 29.48 in998.3 mb 0.00 in0.0 mm 0.00 in0.0 mm 1.54 in39.1 mm
01:31 PM 55.9°F13.3°C 55.3°F12.9°C 98% Calm Calm 3.0 mph4.8 kmh 29.47 in998.0 mb 0.01 in0.3 mm 0.12 in3.0 mm 1.55 in39.4 mm
01:36 PM 56.2°F13.4°C 55.6°F13.1°C 98% 1.0 mph SW1.6 kmh SW 2.0 mph3.2 kmh 29.47 in998.0 mb 0.01 in0.3 mm 0.00 in0.0 mm 1.55 in39.4 mm
01:41 PM 56.5°F13.6°C 55.9°F13.3°C 98% 1.0 mph WSW1.6 kmh WSW 2.0 mph3.2 kmh 29.47 in998.0 mb 0.01 in0.3 mm 0.00 in0.0 mm 1.55 in39.4 mm
01:46 PM 56.6°F13.7°C 56.0°F13.3°C 98% 1.2 mph WSW1.9 kmh WSW 3.0 mph4.8 kmh 29.46 in997.6 mb 0.01 in0.3 mm 0.00 in0.0 mm 1.55 in39.4 mm
01:51 PM 56.2°F13.4°C 55.6°F13.1°C 98% 1.2 mph WSW1.9 kmh WSW 3.0 mph4.8 kmh 29.46 in997.6 mb 0.01 in0.3 mm 0.00 in0.0 mm 1.55 in39.4 mm
01:56 PM 56.1°F13.4°C 55.5°F13.1°C 98% Calm Calm 3.0 mph4.8 kmh 29.45 in997.3 mb 0.01 in0.3 mm 0.00 in0.0 mm 1.55 in39.4 mm
02:01 PM 56.0°F13.3°C 55.4°F13.0°C 98% Calm Calm 3.0 mph4.8 kmh 29.44 in997.0 mb 0.01 in0.3 mm 0.00 in0.0 mm 1.55 in39.4 mm
02:06 PM 56.1°F13.4°C 55.5°F13.1°C 98% Calm Calm 3.0 mph4.8 kmh 29.44 in997.0 mb 0.01 in0.3 mm 0.00 in0.0 mm 1.55 in39.4 mm
02:11 PM 56.1°F13.4°C 55.5°F13.1°C 98% 1.1 mph W1.8 kmh W 2.0 mph3.2 kmh 29.43 in996.6 mb 0.01 in0.3 mm 0.00 in0.0 mm 1.55 in39.4 mm
02:16 PM 56.1°F13.4°C 55.5°F13.1°C 98% 1.3 mph WSW2.1 kmh WSW 3.0 mph4.8 kmh 29.44 in997.0 mb 0.01 in0.3 mm 0.00 in0.0 mm 1.55 in39.4 mm
02:21 PM 56.0°F13.3°C 55.4°F13.0°C 98% 1.5 mph WSW2.4 kmh WSW 3.0 mph4.8 kmh 29.45 in997.3 mb 0.01 in0.3 mm 0.00 in0.0 mm 1.55 in39.4 mm
02:26 PM 56.0°F13.3°C 55.4°F13.0°C 98% 2.3 mph SW3.7 kmh SW 5.0 mph8.0 kmh 29.45 in997.3 mb 0.01 in0.3 mm 0.00 in0.0 mm 1.55 in39.4 mm
02:31 PM 56.1°F13.4°C 55.5°F13.1°C 98% 1.3 mph SW2.1 kmh SW 6.0 mph9.7 kmh 29.46 in997.6 mb 0.00 in0.0 mm 0.00 in0.0 mm 1.55 in39.4 mm
02:36 PM 56.6°F13.7°C 56.0°F13.3°C 98% 2.5 mph SW4.0 kmh SW 7.0 mph11.3 kmh 29.46 in997.6 mb 0.00 in0.0 mm 0.00 in0.0 mm 1.55 in39.4 mm
02:41 PM 57.2°F14.0°C 56.6°F13.7°C 98% 2.1 mph SW3.4 kmh SW 7.0 mph11.3 kmh 29.46 in997.6 mb 0.00 in0.0 mm 0.00 in0.0 mm 1.55 in39.4 mm
02:46 PM 57.7°F14.3°C 57.1°F13.9°C 98% 3.4 mph SW5.5 kmh SW 9.0 mph14.5 kmh 29.46 in997.6 mb 0.00 in0.0 mm 0.00 in0.0 mm 1.55 in39.4 mm
02:51 PM 58.0°F14.4°C 57.4°F14.1°C 98% 3.2 mph SW5.1 kmh SW 11.0 mph17.7 kmh 29.46 in997.6 mb 0.00 in0.0 mm 0.00 in0.0 mm 1.55 in39.4 mm
02:56 PM 58.3°F14.6°C 57.7°F14.3°C 98% 2.8 mph SW4.5 kmh SW 11.0 mph17.7 kmh 29.46 in997.6 mb 0.00 in0.0 mm 0.00 in0.0 mm 1.55 in39.4 mm
03:01 PM 58.5°F14.7°C 57.9°F14.4°C 98% 3.9 mph SW6.3 kmh SW 15.0 mph24.1 kmh 29.46 in997.6 mb 0.00 in0.0 mm 0.00 in0.0 mm 1.55 in39.4 mm
03:06 PM 58.6°F14.8°C 58.0°F14.4°C 98% 4.9 mph SW7.9 kmh SW 15.0 mph24.1 kmh 29.47 in998.0 mb 0.00 in0.0 mm 0.00 in0.0 mm 1.55 in39.4 mm
03:11 PM 57.8°F14.3°C 57.2°F14.0°C 98% 5.7 mph WSW9.2 kmh WSW 15.0 mph24.1 kmh 29.47 in998.0 mb 0.00 in0.0 mm 0.00 in0.0 mm 1.55 in39.4 mm
03:16 PM 57.2°F14.0°C 56.6°F13.7°C 98% 4.7 mph WSW7.6 kmh WSW 15.0 mph24.1 kmh 29.47 in998.0 mb 0.00 in0.0 mm 0.00 in0.0 mm 1.55 in39.4 mm
03:21 PM 56.9°F13.8°C 56.3°F13.5°C 98% 2.4 mph WSW3.9 kmh WSW 13.0 mph20.9 kmh 29.47 in998.0 mb 0.00 in0.0 mm 0.00 in0.0 mm 1.55 in39.4 mm
03:26 PM 56.5°F13.6°C 55.9°F13.3°C 98% 5.1 mph WSW8.2 kmh WSW 13.0 mph20.9 kmh 29.47 in998.0 mb 0.00 in0.0 mm 0.00 in0.0 mm 1.55 in39.4 mm
03:31 PM 56.3°F13.5°C 55.7°F13.2°C 98% 3.8 mph SW6.1 kmh SW 12.0 mph19.3 kmh 29.46 in997.6 mb 0.00 in0.0 mm 0.00 in0.0 mm 1.55 in39.4 mm
03:36 PM 56.1°F13.4°C 55.5°F13.1°C 98% 2.9 mph SW4.7 kmh SW 12.0 mph19.3 kmh 29.47 in998.0 mb 0.00 in0.0 mm 0.00 in0.0 mm 1.55 in39.4 mm
03:41 PM 56.0°F13.3°C 55.4°F13.0°C 98% 3.5 mph SW5.6 kmh SW 12.0 mph19.3 kmh 29.47 in998.0 mb 0.00 in0.0 mm 0.00 in0.0 mm 1.55 in39.4 mm
03:46 PM 56.0°F13.3°C 55.4°F13.0°C 98% 5.9 mph SW9.5 kmh SW 13.0 mph20.9 kmh 29.47 in998.0 mb 0.00 in0.0 mm 0.00 in0.0 mm 1.55 in39.4 mm
03:51 PM 56.0°F13.3°C 55.4°F13.0°C 98% 6.2 mph SW10.0 kmh SW 13.0 mph20.9 kmh 29.46 in997.6 mb 0.00 in0.0 mm 0.00 in0.0 mm 1.55 in39.4 mm
03:56 PM 56.1°F13.4°C 55.5°F13.1°C 98% 6.6 mph SW10.6 kmh SW 13.0 mph20.9 kmh 29.46 in997.6 mb 0.00 in0.0 mm 0.00 in0.0 mm 1.55 in39.4 mm
04:01 PM 56.2°F13.4°C 55.6°F13.1°C 98% 4.2 mph SW6.8 kmh SW 13.0 mph20.9 kmh 29.46 in997.6 mb 0.00 in0.0 mm 0.00 in0.0 mm 1.55 in39.4 mm
04:06 PM 56.1°F13.4°C 55.5°F13.1°C 98% 4.6 mph SW7.4 kmh SW 13.0 mph20.9 kmh 29.45 in997.3 mb 0.00 in0.0 mm 0.00 in0.0 mm 1.55 in39.4 mm
04:11 PM 56.0°F13.3°C 55.4°F13.0°C 98% 4.7 mph SW7.6 kmh SW 13.0 mph20.9 kmh 29.46 in997.6 mb 0.00 in0.0 mm 0.00 in0.0 mm 1.55 in39.4 mm
04:16 PM 55.9°F13.3°C 55.3°F12.9°C 98% 3.7 mph SW6.0 kmh SW 13.0 mph20.9 kmh 29.46 in997.6 mb 0.00 in0.0 mm 0.00 in0.0 mm 1.55 in39.4 mm
04:21 PM 55.9°F13.3°C 55.3°F12.9°C 98% 2.3 mph WSW3.7 kmh WSW 11.0 mph17.7 kmh 29.47 in998.0 mb 0.00 in0.0 mm 0.00 in0.0 mm 1.55 in39.4 mm
04:26 PM 55.8°F13.2°C 55.2°F12.9°C 98% 3.9 mph SW6.3 kmh SW 11.0 mph17.7 kmh 29.46 in997.6 mb 0.00 in0.0 mm 0.00 in0.0 mm 1.55 in39.4 mm
04:31 PM 55.8°F13.2°C 55.2°F12.9°C 98% 2.1 mph SW3.4 kmh SW 11.0 mph17.7 kmh 29.47 in998.0 mb 0.00 in0.0 mm 0.00 in0.0 mm 1.55 in39.4 mm
04:36 PM 55.7°F13.2°C 55.1°F12.8°C 98% 2.6 mph SW4.2 kmh SW 11.0 mph17.7 kmh 29.47 in998.0 mb 0.00 in0.0 mm 0.00 in0.0 mm 1.55 in39.4 mm
04:41 PM 55.6°F13.1°C 55.0°F12.8°C 98% 3.8 mph SW6.1 kmh SW 11.0 mph17.7 kmh 29.47 in998.0 mb 0.00 in0.0 mm 0.00 in0.0 mm 1.55 in39.4 mm
04:46 PM 55.5°F13.1°C 54.9°F12.7°C 98% 3.9 mph SW6.3 kmh SW 12.0 mph19.3 kmh 29.47 in998.0 mb 0.00 in0.0 mm 0.00 in0.0 mm 1.55 in39.4 mm
04:51 PM 55.5°F13.1°C 54.9°F12.7°C 98% 2.0 mph SW3.2 kmh SW 12.0 mph19.3 kmh 29.48 in998.3 mb 0.00 in0.0 mm 0.00 in0.0 mm 1.55 in39.4 mm
04:56 PM 55.6°F13.1°C 55.0°F12.8°C 98% 1.9 mph S3.1 kmh S 12.0 mph19.3 kmh 29.48 in998.3 mb 0.00 in0.0 mm 0.00 in0.0 mm 1.55 in39.4 mm
05:01 PM 55.5°F13.1°C 54.9°F12.7°C 98% 3.9 mph SW6.3 kmh SW 12.0 mph19.3 kmh 29.48 in998.3 mb 0.00 in0.0 mm 0.00 in0.0 mm 1.55 in39.4 mm
05:06 PM 55.5°F13.1°C 54.6°F12.6°C 97% 4.4 mph SW7.1 kmh SW 10.0 mph16.1 kmh 29.49 in998.6 mb 0.00 in0.0 mm 0.00 in0.0 mm 1.55 in39.4 mm
05:11 PM 55.4°F13.0°C 54.5°F12.5°C 97% 3.4 mph SW5.5 kmh SW 13.0 mph20.9 kmh 29.49 in998.6 mb 0.00 in0.0 mm 0.00 in0.0 mm 1.55 in39.4 mm
05:16 PM 55.4°F13.0°C 54.5°F12.5°C 97% 2.6 mph SW4.2 kmh SW 13.0 mph20.9 kmh 29.48 in998.3 mb 0.00 in0.0 mm 0.00 in0.0 mm 1.55 in39.4 mm
05:21 PM 55.4°F13.0°C 54.6°F12.6°C 97% 2.4 mph SW3.9 kmh SW 13.0 mph20.9 kmh 29.49 in998.6 mb 0.00 in0.0 mm 0.00 in0.0 mm 1.55 in39.4 mm
05:26 PM 55.3°F12.9°C 54.4°F12.4°C 97% 1.5 mph SW2.4 kmh SW 13.0 mph20.9 kmh 29.48 in998.3 mb 0.00 in0.0 mm 0.00 in0.0 mm 1.55 in39.4 mm
05:31 PM 55.3°F12.9°C 54.4°F12.4°C 97% 3.2 mph WSW5.1 kmh WSW 6.0 mph9.7 kmh 29.48 in998.3 mb 0.00 in0.0 mm 0.00 in0.0 mm 1.55 in39.4 mm
05:36 PM 55.2°F12.9°C 54.3°F12.4°C 97% 3.7 mph WSW6.0 kmh WSW 8.0 mph12.9 kmh 29.47 in998.0 mb 0.00 in0.0 mm 0.00 in0.0 mm 1.55 in39.4 mm
05:41 PM 55.1°F12.8°C 54.2°F12.3°C 97% 1.6 mph WSW2.6 kmh WSW 8.0 mph12.9 kmh 29.46 in997.6 mb 0.00 in0.0 mm 0.00 in0.0 mm 1.55 in39.4 mm
05:45 PM 55.1°F12.8°C 54.2°F12.3°C 97% 2.3 mph SW3.7 kmh SW 8.0 mph12.9 kmh 29.46 in997.6 mb 0.00 in0.0 mm 0.00 in0.0 mm 1.55 in39.4 mm
05:50 PM 55.0°F12.8°C 54.2°F12.3°C 97% 1.1 mph W1.8 kmh W 8.0 mph12.9 kmh 29.45 in997.3 mb 0.00 in0.0 mm 0.00 in0.0 mm 1.55 in39.4 mm
05:55 PM 55.0°F12.8°C 54.2°F12.3°C 97% 1.0 mph SW1.6 kmh SW 8.0 mph12.9 kmh 29.46 in997.6 mb 0.00 in0.0 mm 0.00 in0.0 mm 1.55 in39.4 mm
06:00 PM 55.0°F12.8°C 54.1°F12.3°C 97% 1.4 mph SW2.3 kmh SW 6.0 mph9.7 kmh 29.47 in998.0 mb 0.00 in0.0 mm 0.00 in0.0 mm 1.55 in39.4 mm
06:05 PM 54.9°F12.7°C 54.0°F12.2°C 97% 2.0 mph W3.2 kmh W 7.0 mph11.3 kmh 29.48 in998.3 mb 0.00 in0.0 mm 0.00 in0.0 mm 1.55 in39.4 mm
06:10 PM 54.9°F12.7°C 54.0°F12.2°C 97% 2.7 mph WSW4.3 kmh WSW 8.0 mph12.9 kmh 29.48 in998.3 mb 0.00 in0.0 mm 0.00 in0.0 mm 1.55 in39.4 mm
06:15 PM 54.8°F12.7°C 53.9°F12.2°C 97% 1.4 mph WSW2.3 kmh WSW 8.0 mph12.9 kmh 29.48 in998.3 mb 0.00 in0.0 mm 0.00 in0.0 mm 1.55 in39.4 mm
06:20 PM 54.7°F12.6°C 53.8°F12.1°C 97% 2.7 mph SW4.3 kmh SW 8.0 mph12.9 kmh 29.48 in998.3 mb 0.00 in0.0 mm 0.00 in0.0 mm 1.55 in39.4 mm
06:25 PM 54.7°F12.6°C 53.8°F12.1°C 97% 2.9 mph SW4.7 kmh SW 8.0 mph12.9 kmh 29.49 in998.6 mb 0.00 in0.0 mm 0.00 in0.0 mm 1.55 in39.4 mm
06:30 PM 54.6°F12.6°C 53.7°F12.1°C 97% 1.5 mph SW2.4 kmh SW 8.0 mph12.9 kmh 29.48 in998.3 mb 0.00 in0.0 mm 0.00 in0.0 mm 1.55 in39.4 mm
06:35 PM 54.6°F12.6°C 53.7°F12.1°C 97% 1.0 mph SW1.6 kmh SW 6.0 mph9.7 kmh 29.48 in998.3 mb 0.00 in0.0 mm 0.00 in0.0 mm 1.55 in39.4 mm
06:40 PM 54.5°F12.5°C 53.6°F12.0°C 97% 1.5 mph SW2.4 kmh SW 6.0 mph9.7 kmh 29.48 in998.3 mb 0.00 in0.0 mm 0.00 in0.0 mm 1.55 in39.4 mm
06:45 PM 54.5°F12.5°C 53.6°F12.0°C 97% 1.0 mph SW1.6 kmh SW 3.0 mph4.8 kmh 29.48 in998.3 mb 0.00 in0.0 mm 0.00 in0.0 mm 1.55 in39.4 mm
06:50 PM 54.5°F12.5°C 53.6°F12.0°C 97% 1.9 mph SW3.1 kmh SW 4.0 mph6.4 kmh 29.48 in998.3 mb 0.00 in0.0 mm 0.00 in0.0 mm 1.55 in39.4 mm
06:55 PM 54.4°F12.4°C 53.5°F11.9°C 97% 1.0 mph SSW1.6 kmh SSW 4.0 mph6.4 kmh 29.49 in998.6 mb 0.00 in0.0 mm 0.00 in0.0 mm 1.55 in39.4 mm
07:00 PM 54.4°F12.4°C 53.5°F11.9°C 97% 1.3 mph SW2.1 kmh SW 4.0 mph6.4 kmh 29.49 in998.6 mb 0.00 in0.0 mm 0.00 in0.0 mm 1.55 in39.4 mm
07:05 PM 54.3°F12.4°C 53.4°F11.9°C 97% 1.4 mph SW2.3 kmh SW 6.0 mph9.7 kmh 29.48 in998.3 mb 0.00 in0.0 mm 0.00 in0.0 mm 1.55 in39.4 mm
07:10 PM 54.3°F12.4°C 53.4°F11.9°C 97% 1.4 mph SW2.3 kmh SW 6.0 mph9.7 kmh 29.48 in998.3 mb 0.00 in0.0 mm 0.00 in0.0 mm 1.55 in39.4 mm
07:15 PM 54.2°F12.3°C 53.3°F11.8°C 97% 2.3 mph SW3.7 kmh SW 6.0 mph9.7 kmh 29.48 in998.3 mb 0.00 in0.0 mm 0.00 in0.0 mm 1.55 in39.4 mm
07:20 PM 54.2°F12.3°C 53.3°F11.8°C 97% 1.0 mph SW1.6 kmh SW 6.0 mph9.7 kmh 29.47 in998.0 mb 0.00 in0.0 mm 0.00 in0.0 mm 1.55 in39.4 mm
07:25 PM 54.2°F12.3°C 53.3°F11.8°C 97% Calm Calm 4.0 mph6.4 kmh 29.47 in998.0 mb 0.00 in0.0 mm 0.00 in0.0 mm 1.55 in39.4 mm
07:30 PM 54.1°F12.3°C 53.2°F11.8°C 97% Calm Calm 4.0 mph6.4 kmh 29.47 in998.0 mb 0.00 in0.0 mm 0.00 in0.0 mm 1.55 in39.4 mm
07:35 PM 54.1°F12.3°C 53.2°F11.8°C 97% Calm Calm 2.0 mph3.2 kmh 29.48 in998.3 mb 0.00 in0.0 mm 0.00 in0.0 mm 1.55 in39.4 mm
07:40 PM 54.0°F12.2°C 53.1°F11.7°C 97% Calm Calm 1.0 mph1.6 kmh 29.48 in998.3 mb 0.00 in0.0 mm 0.00 in0.0 mm 1.55 in39.4 mm
07:45 PM 54.0°F12.2°C 53.1°F11.7°C 97% Calm Calm 1.0 mph1.6 kmh 29.47 in998.0 mb 0.00 in0.0 mm 0.00 in0.0 mm 1.55 in39.4 mm
07:50 PM 53.9°F12.2°C 53.0°F11.7°C 97% Calm Calm 1.0 mph1.6 kmh 29.48 in998.3 mb 0.00 in0.0 mm 0.00 in0.0 mm 1.55 in39.4 mm
07:55 PM 53.9°F12.2°C 53.0°F11.7°C 97% 1.0 mph SW1.6 kmh SW 1.0 mph1.6 kmh 29.47 in998.0 mb 0.01 in0.3 mm 0.12 in3.0 mm 1.56 in39.6 mm
08:00 PM 54.0°F12.2°C 53.1°F11.7°C 97% 1.0 mph SW1.6 kmh SW 3.0 mph4.8 kmh 29.47 in998.0 mb 0.01 in0.3 mm 0.00 in0.0 mm 1.56 in39.6 mm
08:05 PM 54.0°F12.2°C 53.1°F11.7°C 97% 2.2 mph SW3.5 kmh SW 3.0 mph4.8 kmh 29.48 in998.3 mb 0.01 in0.3 mm 0.00 in0.0 mm 1.56 in39.6 mm
08:10 PM 54.0°F12.2°C 53.1°F11.7°C 97% Calm Calm 3.0 mph4.8 kmh 29.47 in998.0 mb 0.01 in0.3 mm 0.00 in0.0 mm 1.56 in39.6 mm
08:15 PM 54.0°F12.2°C 53.1°F11.7°C 97% 1.0 mph WSW1.6 kmh WSW 3.0 mph4.8 kmh 29.47 in998.0 mb 0.01 in0.3 mm 0.00 in0.0 mm 1.56 in39.6 mm
08:20 PM 54.0°F12.2°C 53.1°F11.7°C 97% 1.0 mph SW1.6 kmh SW 3.0 mph4.8 kmh 29.47 in998.0 mb 0.01 in0.3 mm 0.00 in0.0 mm 1.56 in39.6 mm
08:26 PM 53.9°F12.2°C 53.0°F11.7°C 97% 1.0 mph SW1.6 kmh SW 2.0 mph3.2 kmh 29.47 in998.0 mb 0.01 in0.3 mm 0.00 in0.0 mm 1.56 in39.6 mm
08:30 PM 53.9°F12.2°C 53.0°F11.7°C 97% Calm Calm 1.0 mph1.6 kmh 29.45 in997.3 mb 0.01 in0.3 mm 0.00 in0.0 mm 1.56 in39.6 mm
08:35 PM 53.9°F12.2°C 53.0°F11.7°C 97% Calm Calm 1.0 mph1.6 kmh 29.45 in997.3 mb 0.01 in0.3 mm 0.00 in0.0 mm 1.56 in39.6 mm
08:40 PM 53.9°F12.2°C 53.0°F11.7°C 97% Calm Calm 1.0 mph1.6 kmh 29.45 in997.3 mb 0.01 in0.3 mm 0.00 in0.0 mm 1.56 in39.6 mm
08:45 PM 53.9°F12.2°C 53.0°F11.7°C 97% Calm Calm -- 29.44 in997.0 mb 0.01 in0.3 mm 0.00 in0.0 mm 1.56 in39.6 mm
08:51 PM 53.9°F12.2°C 53.3°F11.8°C 98% Calm Calm -- 29.44 in997.0 mb 0.01 in0.3 mm 0.00 in0.0 mm 1.56 in39.6 mm
08:55 PM 53.9°F12.2°C 53.3°F11.8°C 98% Calm Calm -- 29.44 in997.0 mb 0.00 in0.0 mm 0.00 in0.0 mm 1.56 in39.6 mm
09:00 PM 53.8°F12.1°C 53.2°F11.8°C 98% Calm Calm -- 29.44 in997.0 mb 0.00 in0.0 mm 0.00 in0.0 mm 1.56 in39.6 mm
09:06 PM 53.8°F12.1°C 53.2°F11.8°C 98% Calm Calm -- 29.44 in997.0 mb 0.00 in0.0 mm 0.00 in0.0 mm 1.56 in39.6 mm
09:11 PM 53.8°F12.1°C 53.2°F11.8°C 98% Calm Calm -- 29.42 in996.3 mb 0.00 in0.0 mm 0.00 in0.0 mm 1.56 in39.6 mm
09:16 PM 53.8°F12.1°C 53.2°F11.8°C 98% 1.0 mph SW1.6 kmh SW 1.0 mph1.6 kmh 29.45 in997.3 mb 0.00 in0.0 mm 0.00 in0.0 mm 1.56 in39.6 mm
09:20 PM 53.8°F12.1°C 53.2°F11.8°C 98% Calm Calm 1.0 mph1.6 kmh 29.44 in997.0 mb 0.00 in0.0 mm 0.00 in0.0 mm 1.56 in39.6 mm
09:26 PM 53.8°F12.1°C 53.2°F11.8°C 98% Calm Calm 1.0 mph1.6 kmh 29.44 in997.0 mb 0.00 in0.0 mm 0.00 in0.0 mm 1.56 in39.6 mm
09:31 PM 53.8°F12.1°C 53.2°F11.8°C 98% Calm Calm 1.0 mph1.6 kmh 29.43 in996.6 mb 0.00 in0.0 mm 0.00 in0.0 mm 1.56 in39.6 mm
09:36 PM 53.8°F12.1°C 53.2°F11.8°C 98% Calm Calm -- 29.44 in997.0 mb 0.00 in0.0 mm 0.00 in0.0 mm 1.56 in39.6 mm
09:41 PM 53.8°F12.1°C 53.2°F11.8°C 98% Calm Calm -- 29.44 in997.0 mb 0.00 in0.0 mm 0.00 in0.0 mm 1.56 in39.6 mm
09:46 PM 53.8°F12.1°C 53.2°F11.8°C 98% Calm Calm -- 29.43 in996.6 mb 0.00 in0.0 mm 0.00 in0.0 mm 1.56 in39.6 mm
09:51 PM 53.8°F12.1°C 53.2°F11.8°C 98% Calm Calm -- 29.43 in996.6 mb 0.00 in0.0 mm 0.00 in0.0 mm 1.56 in39.6 mm
09:56 PM 53.8°F12.1°C 53.2°F11.8°C 98% Calm Calm -- 29.42 in996.3 mb 0.01 in0.3 mm 0.12 in3.0 mm 1.57 in39.9 mm
10:01 PM 53.8°F12.1°C 53.2°F11.8°C 98% Calm Calm -- 29.41 in995.9 mb 0.01 in0.3 mm 0.00 in0.0 mm 1.57 in39.9 mm
10:06 PM 53.8°F12.1°C 53.2°F11.8°C 98% Calm Calm -- 29.41 in995.9 mb 0.01 in0.3 mm 0.00 in0.0 mm 1.57 in39.9 mm
10:11 PM 53.8°F12.1°C 53.2°F11.8°C 98% Calm Calm -- 29.41 in995.9 mb 0.01 in0.3 mm 0.00 in0.0 mm 1.57 in39.9 mm
10:16 PM 53.9°F12.2°C 53.3°F11.8°C 98% Calm Calm -- 29.41 in995.9 mb 0.01 in0.3 mm 0.00 in0.0 mm 1.57 in39.9 mm
10:21 PM 54.0°F12.2°C 53.4°F11.9°C 98% Calm Calm -- 29.41 in995.9 mb 0.02 in0.5 mm 0.12 in3.0 mm 1.58 in40.1 mm
10:26 PM 54.1°F12.3°C 53.5°F11.9°C 98% Calm Calm -- 29.40 in995.6 mb 0.02 in0.5 mm 0.00 in0.0 mm 1.58 in40.1 mm
10:31 PM 54.0°F12.2°C 53.4°F11.9°C 98% Calm Calm -- 29.40 in995.6 mb 0.02 in0.5 mm 0.00 in0.0 mm 1.58 in40.1 mm
10:36 PM 54.0°F12.2°C 53.4°F11.9°C 98% Calm Calm -- 29.40 in995.6 mb 0.02 in0.5 mm 0.00 in0.0 mm 1.58 in40.1 mm
10:41 PM 53.9°F12.2°C 53.3°F11.8°C 98% Calm Calm -- 29.39 in995.3 mb 0.02 in0.5 mm 0.00 in0.0 mm 1.58 in40.1 mm
10:45 PM 53.8°F12.1°C 53.2°F11.8°C 98% 1.0 mph SW1.6 kmh SW 1.0 mph1.6 kmh 29.38 in994.9 mb 0.02 in0.5 mm 0.00 in0.0 mm 1.58 in40.1 mm
10:50 PM 53.7°F12.1°C 53.1°F11.7°C 98% 1.0 mph NE1.6 kmh NE 1.0 mph1.6 kmh 29.38 in994.9 mb 0.02 in0.5 mm 0.00 in0.0 mm 1.58 in40.1 mm
10:55 PM 53.6°F12.0°C 53.0°F11.7°C 98% 1.0 mph NE1.6 kmh NE 1.0 mph1.6 kmh 29.37 in994.6 mb 0.02 in0.5 mm 0.00 in0.0 mm 1.58 in40.1 mm
11:00 PM 53.6°F12.0°C 53.0°F11.7°C 98% Calm Calm 1.0 mph1.6 kmh 29.37 in994.6 mb 0.01 in0.3 mm 0.00 in0.0 mm 1.58 in40.1 mm
11:05 PM 53.5°F11.9°C 52.9°F11.6°C 98% Calm Calm 1.0 mph1.6 kmh 29.37 in994.6 mb 0.01 in0.3 mm 0.00 in0.0 mm 1.58 in40.1 mm
11:10 PM 53.5°F11.9°C 52.9°F11.6°C 98% Calm Calm 1.0 mph1.6 kmh 29.37 in994.6 mb 0.01 in0.3 mm 0.00 in0.0 mm 1.58 in40.1 mm
11:15 PM 53.5°F11.9°C 52.9°F11.6°C 98% Calm Calm -- 29.37 in994.6 mb 0.01 in0.3 mm 0.00 in0.0 mm 1.58 in40.1 mm
11:20 PM 53.5°F11.9°C 52.9°F11.6°C 98% Calm Calm -- 29.37 in994.6 mb 0.00 in0.0 mm 0.00 in0.0 mm 1.58 in40.1 mm
11:25 PM 53.5°F11.9°C 52.9°F11.6°C 98% Calm Calm -- 29.37 in994.6 mb 0.00 in0.0 mm 0.00 in0.0 mm 1.58 in40.1 mm
11:30 PM 53.5°F11.9°C 52.9°F11.6°C 98% Calm Calm -- 29.36 in994.2 mb 0.00 in0.0 mm 0.00 in0.0 mm 1.58 in40.1 mm
11:35 PM 53.5°F11.9°C 52.9°F11.6°C 98% Calm Calm -- 29.36 in994.2 mb 0.00 in0.0 mm 0.00 in0.0 mm 1.58 in40.1 mm
11:40 PM 53.5°F11.9°C 52.9°F11.6°C 98% 1.0 mph ENE1.6 kmh ENE 1.0 mph1.6 kmh 29.36 in994.2 mb 0.00 in0.0 mm 0.00 in0.0 mm 1.58 in40.1 mm
11:45 PM 53.5°F11.9°C 52.9°F11.6°C 98% Calm Calm 1.0 mph1.6 kmh 29.36 in994.2 mb 0.00 in0.0 mm 0.00 in0.0 mm 1.58 in40.1 mm
11:50 PM 53.5°F11.9°C 52.9°F11.6°C 98% Calm Calm 1.0 mph1.6 kmh 29.36 in994.2 mb 0.00 in0.0 mm 0.00 in0.0 mm 1.58 in40.1 mm
11:55 PM 53.5°F11.9°C 52.9°F11.6°C 98% Calm Calm 1.0 mph1.6 kmh 29.35 in993.9 mb 0.00 in0.0 mm 0.00 in0.0 mm 1.58 in40.1 mm